CDT,Max TemperatureF,Mean TemperatureF,Min TemperatureF,Max Dew PointF,MeanDew PointF,Min DewpointF,Max Humidity, Mean Humidity, Min Humidity, Max Sea Level PressureIn, Mean Sea Level PressureIn, Min Sea Level PressureIn, Max VisibilityMiles, Mean VisibilityMiles, Min VisibilityMiles, Max Wind SpeedMPH, Mean Wind SpeedMPH, Max Gust SpeedMPH,PrecipitationIn, CloudCover, Events, WindDirDegrees
2013-3-1,54,42,30,31,28,24,93,63,32,30.24,30.19,30.14,10,10,10,16,3,20,0.00,2,,330
2013-3-2,49,40,29,28,23,20,87,56,34,30.34,30.27,30.23,10,10,10,15,7,21,0.00,3,,334
2013-3-3,62,45,28,33,26,17,91,54,23,30.27,30.16,30.00,10,10,10,12,3,16,0.00,0,,155
2013-3-4,76,62,47,57,48,33,80,63,40,29.99,29.83,29.71,10,10,10,23,10,34,0.00,1,,172
2013-3-5,64,50,37,59,35,21,86,50,25,30.32,30.11,29.77,10,10,10,21,9,32,0.00,2,,303
2013-3-6,62,46,31,32,25,18,85,49,18,30.42,30.33,30.27,10,10,10,12,4,16,0.00,0,,346
2013-3-7,65,50,36,32,30,25,80,50,23,30.37,30.28,30.22,10,10,10,9,4,,0.00,0,,116
2013-3-8,72,56,41,38,34,30,71,44,22,30.31,30.21,30.09,10,10,10,13,4,17,0.00,1,,119
2013-3-9,69,62,56,57,51,40,75,65,47,30.12,29.99,29.84,10,10,10,21,6,28,0.00,5,,142
2013-3-10,66,56,45,60,50,32,92,76,53,30.02,29.87,29.73,10,9,3,22,10,31,0.77,7,Rain-Thunderstorm,233
2013-3-11,57,46,36,36,31,28,91,58,36,30.09,30.03,29.97,10,10,10,15,8,29,0.00,1,,296
2013-3-12,67,49,31,38,30,20,96,60,21,30.28,30.17,30.08,10,10,10,6,1,,0.00,0,,359
2013-3-13,67,52,37,38,30,22,87,48,21,30.46,30.39,30.29,10,10,10,13,2,17,0.00,0,,357
2013-3-14,73,54,36,41,33,28,83,45,24,30.44,30.34,30.23,10,10,10,10,4,16,0.00,0,,162
2013-3-15,80,65,50,49,44,41,75,49,26,30.23,30.12,29.99,10,10,10,15,6,22,0.00,0,,201
2013-3-16,80,68,56,56,51,46,91,57,31,30.00,29.92,29.82,10,10,10,17,10,24,0.00,1,,186
2013-3-17,79,68,58,62,58,55,89,70,44,29.89,29.81,29.69,10,10,10,20,8,25,0.00,6,,174
2013-3-18,76,66,55,63,59,46,84,72,57,30.02,29.82,29.73,10,10,10,14,8,21,0.00,5,,242
2013-3-19,70,58,46,47,37,31,87,51,25,30.14,30.07,30.02,10,10,3,12,5,22,0.00,0,,74
2013-3-20,67,55,43,36,29,22,74,39,18,30.28,30.17,30.09,10,10,10,17,5,21,0.00,1,Rain,360
2013-3-21,54,48,43,35,30,21,60,46,34,30.08,29.94,29.78,10,10,10,14,6,21,0.00,4,Rain,94
2013-3-22,56,52,48,51,46,35,92,83,48,29.84,29.79,29.73,10,5,2,10,6,,0.01,8,Rain,76
2013-3-23,60,54,48,53,49,46,93,90,76,29.88,29.76,29.62,10,6,1,14,4,29,0.73,8,Rain-Thunderstorm,38
2013-3-24,52,44,37,49,37,28,95,70,43,30.12,29.91,29.66,10,8,0,25,9,34,0.43,6,Fog,306
2013-3-25,55,42,29,30,23,17,88,54,23,30.38,30.24,30.13,10,10,10,21,6,32,0.00,0,,318
2013-3-26,55,40,27,32,25,19,91,60,27,30.48,30.40,30.35,10,10,10,12,2,17,0.00,0,,328
2013-3-27,66,48,31,31,28,25,92,51,23,30.43,30.33,30.22,10,10,10,10,3,,0.00,0,,150
2013-3-28,74,58,43,45,39,31,81,50,34,30.33,30.26,30.19,10,10,10,9,4,,0.00,5,,164
2013-3-29,78,68,59,56,52,40,86,61,41,30.25,30.19,30.12,10,10,7,12,6,20,0.00,6,,201
2013-3-30,71,64,57,64,59,54,93,87,70,30.14,30.04,29.95,10,8,1,10,3,16,0.76,4,Rain-Thunderstorm,167
2013-3-31,69,62,55,62,58,54,94,86,68,30.05,29.94,29.90,10,8,1,26,4,41,0.54,4,Rain-Thunderstorm,144